Latest Weather Observations for Telfer

IDW60801

Issued at 11:03 pm WST Saturday 23 July 2016 (issued every 30 minutes, with the page automatically refreshed every 10 minutes)

About weather observations | Map of weather stations | Latest weather observations for WA | Other Formats
Station Details ID: 013030 Name: TELFER AERO Lat: -21.71 Lon: 122.23 Height: 291.9 m
Data from the previous 72 hours. | See also: Recent months at Telfer
Date/Time
WST
Temp
°C
App
Temp
°C
Dew
Point
°C
Rel
Hum
%
Delta-T
°C
Wind Press
QNH
hPa
Press
MSL
hPa
Rain since
9am
mm
Dir  Spd
km/h
Gust
km/h
Spd
kts
Gust
kts
23/11:00pm 16.7 11.1 5.3 47 5.5 SE 24 30 13 16 1019.2 1018.5 0.0
23/10:30pm 17.1 11.2 5.7 47 5.6 SE 26 30 14 16 1019.4 1018.7 0.0
23/10:00pm 17.4 11.1 5.7 46 5.8 SE 28 35 15 19 1019.4 1018.7 0.0
23/09:30pm 17.6 11.3 5.9 46 5.8 SSE 28 37 15 20 1019.4 1018.7 0.0
23/09:00pm 18.4 11.0 6.6 46 5.9 SSE 35 44 19 24 1019.1 1018.4 0.0
23/08:30pm 19.3 12.8 6.4 43 6.5 SE 30 43 16 23 1018.9 1018.2 0.0
23/08:00pm 20.9 14.6 5.7 37 7.7 SSE 28 37 15 20 1018.4 1017.7 0.0
23/07:30pm 21.7 15.0 5.6 35 8.2 SE 30 37 16 20 1018.2 1017.5 0.0
23/07:00pm 22.5 17.9 6.3 35 8.3 SE 20 26 11 14 1017.7 1017.0 0.0
23/06:30pm 23.2 19.3 6.9 35 8.5 SE 17 20 9 11 1017.2 1016.5 0.0
23/06:00pm 23.8 20.6 7.0 34 8.8 SE 13 17 7 9 1016.9 1016.2 0.0
23/05:30pm 24.7 20.9 7.4 33 9.2 SSE 17 20 9 11 1016.5 1015.9 0.0
23/05:00pm 25.6 21.3 6.8 30 10.0 ESE 19 24 10 13 1016.2 1015.5 0.0
23/04:30pm 25.9 21.3 6.5 29 10.2 ESE 20 24 11 13 1016.0 1015.3 0.0
23/04:00pm 25.8 21.1 5.9 28 10.4 ESE 20 28 11 15 1015.9 1015.2 0.0
23/03:30pm 25.8 21.5 5.4 27 10.6 SE 17 26 9 14 1016.1 1015.4 0.0
23/03:00pm 26.5 21.2 4.9 25 11.1 ESE 22 28 12 15 1016.2 1015.5 0.0
23/02:30pm 26.0 20.7 5.0 26 10.8 SSE 22 32 12 17 1016.5 1015.9 0.0
23/02:00pm 25.7 20.7 3.6 24 11.1 E 19 30 10 16 1017.0 1016.3 0.0
23/01:30pm 25.8 20.2 3.7 24 11.1 ESE 22 33 12 18 1017.4 1016.7 0.0
23/01:00pm 24.8 18.8 3.5 25 10.6 ESE 24 32 13 17 1017.9 1017.2 0.0
23/12:30pm 24.2 17.9 3.5 26 10.3 SE 26 33 14 18 1018.3 1017.6 0.0
23/12:00pm 23.3 17.3 3.3 27 9.8 SE 24 30 13 16 1018.6 1017.9 0.0
23/11:30am 23.2 16.7 2.7 26 9.9 ESE 26 33 14 18 1019.0 1018.3 0.0
23/11:00am 22.4 15.5 2.5 27 9.5 SE 28 37 15 20 1019.4 1018.7 0.0
23/10:30am 21.5 14.5 2.2 28 9.1 ESE 28 39 15 21 1019.6 1019.0 0.0
23/10:00am 20.5 12.8 2.3 30 8.6 SE 32 37 17 20 1020.0 1019.4 0.0
23/09:30am 20.0 12.2 2.8 32 8.2 SE 33 41 18 22 1020.4 1019.7 0.0
23/09:00am 19.2 12.1 3.4 35 7.5 SE 30 39 16 21 1020.5 1019.8 0.0
23/08:30am 19.2 12.5 3.8 36 7.4 SE 28 39 15 21 1020.4 1019.7 0.0
23/08:00am 17.9 10.5 3.8 39 6.7 SE 32 43 17 23 1019.9 1019.3 0.0
23/07:30am 17.2 10.6 4.2 42 6.2 SE 28 35 15 19 1019.5 1018.9 0.0
23/07:00am 16.9 11.1 4.6 44 5.9 SE 24 30 13 16 1019.1 1018.4 0.0
23/06:30am 16.8 11.1 4.8 45 5.8 SE 24 32 13 17 1018.8 1018.1 0.0
23/06:00am 16.9 10.8 4.6 44 5.9 SE 26 33 14 18 1018.3 1017.6 0.0
23/05:30am 17.0 11.2 4.3 43 6.1 SE 24 32 13 17 1017.9 1017.2 0.0
23/05:00am 17.1 11.6 4.1 42 6.2 SE 22 32 12 17 1017.8 1017.1 0.0
23/04:30am 17.0 11.4 3.7 41 6.3 SE 22 28 12 15 1017.6 1016.9 0.0
23/04:00am 16.9 11.7 3.6 41 6.2 SE 20 26 11 14 1017.6 1016.9 0.0
23/03:30am 17.2 11.6 3.5 40 6.4 SE 22 28 12 15 1017.6 1016.9 0.0
23/03:00am 17.6 12.0 3.5 39 6.6 SE 22 30 12 16 1017.8 1017.1 0.0
23/02:30am 17.9 12.3 3.4 38 6.8 SE 22 30 12 16 1017.7 1017.0 0.0
23/02:00am 18.1 12.1 3.6 38 6.9 SE 24 32 13 17 1017.9 1017.2 0.0
23/01:30am 18.3 12.0 3.8 38 6.9 SE 26 37 14 20 1017.9 1017.2 0.0
23/01:00am 18.3 12.4 4.1 39 6.8 SE 24 35 13 19 1018.2 1017.5 0.0
23/12:30am 18.4 12.6 4.6 40 6.7 SSE 24 30 13 16 1018.3 1017.6 0.0
23/12:00am 18.7 13.0 4.8 40 6.8 SE 24 33 13 18 1018.2 1017.5 0.0
 
Date/Time
WST
Temp
°C
App
Temp
°C
Dew
Point
°C
Rel
Hum
%
Delta-T
°C
Wind Press
QNH
hPa
Press
MSL
hPa
Rain since
9am
mm
Dir  Spd
km/h
Gust
km/h
Spd
kts
Gust
kts
22/11:30pm 18.8 13.1 4.9 40 6.8 SE 24 32 13 17 1018.2 1017.5 0.0
22/11:00pm 19.1 13.8 5.2 40 6.9 SE 22 30 12 16 1018.3 1017.6 0.0
22/10:30pm 19.5 13.5 5.2 39 7.1 SE 26 35 14 19 1018.2 1017.5 0.0
22/10:00pm 19.9 15.0 5.2 38 7.3 SE 20 28 11 15 1018.7 1018.0 0.0
22/09:30pm 20.1 14.5 5.4 38 7.3 SE 24 32 13 17 1018.4 1017.7 0.0
22/09:00pm 20.4 14.4 5.2 37 7.6 SE 26 35 14 19 1018.5 1017.8 0.0
22/08:30pm 20.7 14.3 5.1 36 7.8 SSE 28 35 15 19 1018.3 1017.6 0.0
22/08:00pm 21.0 14.6 5.4 36 7.8 SSE 28 35 15 19 1018.2 1017.5 0.0
22/07:30pm 21.4 15.0 5.3 35 8.1 SSE 28 37 15 20 1017.9 1017.2 0.0
22/07:00pm 21.8 17.0 4.4 32 8.6 SE 19 24 10 13 1017.6 1016.9 0.0
22/06:30pm 22.3 17.3 4.4 31 8.9 SSE 20 26 11 14 1017.4 1016.7 0.0
22/06:00pm 22.7 17.5 3.8 29 9.3 SSE 20 28 11 15 1016.8 1016.1 0.0
22/05:30pm 23.6 18.0 3.5 27 9.9 SSE 22 28 12 15 1016.5 1015.9 0.0
22/05:00pm 24.3 17.9 3.0 25 10.4 SSE 26 33 14 18 1016.0 1015.3 0.0
22/04:30pm 25.4 18.9 2.8 23 11.1 SSE 26 32 14 17 1016.0 1015.3 0.0
22/04:00pm 26.3 19.8 2.9 22 11.6 SSE 26 33 14 18 1015.9 1015.2 0.0
22/03:30pm 26.9 20.0 2.7 21 12.0 SE 28 37 15 20 1015.9 1015.2 0.0
22/03:00pm 27.0 20.3 3.5 22 11.8 SE 28 33 15 18 1016.0 1015.3 0.0
22/02:30pm 27.4 21.0 3.2 21 12.2 SE 26 35 14 19 1016.0 1015.3 0.0
22/02:00pm 26.9 20.3 4.0 23 11.6 SE 28 39 15 21 1016.2 1015.5 0.0
22/01:30pm 27.9 22.1 4.2 22 12.2 SSE 24 43 13 23 1016.4 1015.7 0.0
22/01:00pm 26.6 20.3 3.8 23 11.5 SE 26 33 14 18 1016.6 1016.0 0.0
22/12:30pm 26.0 19.7 3.9 24 11.2 SSE 26 35 14 19 1017.3 1016.6 0.0
22/12:00pm 25.5 19.6 4.0 25 10.8 SE 24 33 13 18 1017.7 1017.0 0.0
22/11:30am 25.0 18.9 4.7 27 10.3 SSE 26 35 14 19 1018.3 1017.6 0.0
22/11:00am 24.3 17.7 4.1 27 10.1 SE 28 39 15 21 1018.6 1017.9 0.0
22/10:30am 23.5 17.0 4.5 29 9.5 SE 28 39 15 21 1018.9 1018.2 0.0
22/10:00am 22.1 15.5 4.2 31 8.8 SE 28 37 15 20 1019.0 1018.3 0.0
22/09:30am 21.4 14.0 4.0 32 8.5 SE 32 39 17 21 1019.2 1018.5 0.0
22/09:00am 20.4 13.9 4.8 36 7.7 SE 28 39 15 21 1019.2 1018.5 0.0
22/08:30am 19.6 13.9 4.9 38 7.2 SE 24 30 13 16 1019.1 1018.4 0.0
22/08:00am 18.5 13.2 5.0 41 6.6 SE 22 28 12 15 1018.8 1018.1 0.0
22/07:30am 17.4 12.1 5.0 44 6.0 SE 22 30 12 16 1018.3 1017.6 0.0
22/07:00am 16.6 11.7 4.9 46 5.6 SE 20 24 11 13 1018.1 1017.4 0.0
22/06:30am 15.7 11.3 5.0 49 5.1 SE 17 20 9 11 1017.7 1017.0 0.0
22/06:00am 16.3 11.4 5.0 47 5.4 SE 20 24 11 13 1017.3 1016.6 0.0
22/05:30am 16.8 11.5 5.1 46 5.7 SE 22 26 12 14 1017.2 1016.5 0.0
22/05:00am 17.0 12.1 5.3 46 5.7 SE 20 24 11 13 1017.0 1016.3 0.0
22/04:30am 17.1 12.5 5.4 46 5.7 SE 19 24 10 13 1016.8 1016.1 0.0
22/04:00am 16.8 12.6 5.7 48 5.4 SE 17 20 9 11 1017.0 1016.3 0.0
22/03:30am 17.4 12.8 6.3 48 5.5 SE 20 24 11 13 1016.9 1016.2 0.0
22/03:00am 17.4 13.4 6.6 49 5.4 SE 17 19 9 10 1016.8 1016.1 0.0
22/02:30am 18.5 14.5 6.7 46 6.0 SE 17 20 9 11 1016.9 1016.2 0.0
22/02:00am 19.7 15.4 6.8 43 6.6 SE 19 22 10 12 1016.8 1016.1 0.0
22/01:30am 20.3 15.8 7.0 42 6.9 SSE 20 28 11 15 1017.0 1016.3 0.0
22/01:00am 20.9 15.7 7.2 41 7.1 SSE 24 32 13 17 1017.2 1016.5 0.0
22/12:30am 21.4 16.8 8.0 42 7.1 S 22 30 12 16 1017.3 1016.6 0.0
22/12:00am 21.9 17.2 9.4 45 6.8 S 24 32 13 17 1017.2 1016.5 0.0
 
Date/Time
WST
Temp
°C
App
Temp
°C
Dew
Point
°C
Rel
Hum
%
Delta-T
°C
Wind Press
QNH
hPa
Press
MSL
hPa
Rain since
9am
mm
Dir  Spd
km/h
Gust
km/h
Spd
kts
Gust
kts
21/11:30pm 22.8 19.3 10.3 45 6.9 SW 19 26 10 14 1017.0 1016.3 0.0
21/11:00pm 23.4 21.2 10.8 45 7.1 SW 13 17 7 9 1016.8 1016.1 0.0
21/10:30pm 23.4 22.8 10.5 44 7.2 SW 4 9 2 5 1016.6 1016.0 0.0
21/10:00pm 23.6 22.5 10.6 44 7.3 WSW 7 9 4 5 1016.5 1015.9 0.0
21/09:30pm 23.3 23.6 11.0 46 6.9 CALM 0 7 0 4 1016.3 1015.6 0.0
21/09:00pm 23.4 22.9 10.8 45 7.1 WSW 4 6 2 3 1016.2 1015.5 0.0
21/08:30pm 23.4 22.3 10.8 45 7.1 WNW 7 9 4 5 1016.0 1015.3 0.0
21/08:00pm 24.3 22.8 10.6 42 7.7 NW 9 13 5 7 1015.8 1015.1 0.0
21/07:30pm 24.7 22.8 10.6 41 7.9 NW 11 13 6 7 1015.5 1014.8 0.0
21/07:00pm 25.2 23.7 10.6 40 8.2 WNW 9 13 5 7 1015.1 1014.4 0.0
21/06:30pm 25.5 24.0 10.5 39 8.5 WNW 9 9 5 5 1014.7 1014.0 0.0
21/06:00pm 26.4 24.8 10.1 36 9.2 WNW 9 11 5 6 1014.3 1013.6 0.0
21/05:30pm 27.5 25.1 10.2 34 9.8 WNW 13 17 7 9 1014.0 1013.3 0.0
21/05:00pm 28.3 25.8 10.9 34 10.0 NW 15 20 8 11 1013.9 1013.2 0.0
21/04:30pm 29.0 26.5 11.1 33 10.4 WNW 15 26 8 14 1013.7 1013.0 0.0
21/04:00pm 28.8 26.3 10.9 33 10.3 NW 15 20 8 11 1013.5 1012.7 0.0
21/03:30pm 29.2 25.9 10.8 32 10.6 WNW 19 32 10 17 1013.6 1012.9 0.0
21/03:00pm 29.0 25.4 10.6 32 10.6 NW 20 26 11 14 1013.8 1013.1 0.0
21/02:30pm 29.3 25.7 10.4 31 10.9 NW 20 28 11 15 1014.0 1013.3 0.0
21/02:00pm 28.9 25.4 11.0 33 10.4 WNW 20 30 11 16 1014.2 1013.5 0.0
21/01:30pm 28.7 25.9 11.3 34 10.1 NNW 17 28 9 15 1014.4 1013.7 0.0
21/01:00pm 27.9 24.1 11.0 35 9.7 NNW 22 32 12 17 1014.8 1014.1 0.0
21/12:30pm 28.6 25.3 10.8 33 10.3 NW 19 28 10 15 1015.2 1014.5 0.0
21/12:00pm 27.8 23.9 10.9 35 9.7 NW 22 35 12 19 1015.6 1014.9 0.0
21/11:30am 27.1 23.4 10.3 35 9.5 NW 20 32 11 17 1015.9 1015.2 0.0
21/11:00am 26.8 24.3 10.9 37 9.1 WNW 15 26 8 14 1016.2 1015.5 0.0
21/10:30am 26.4 24.6 12.1 41 8.3 WNW 13 24 7 13 1016.5 1015.9 0.0
21/10:00am 25.0 23.2 12.2 44 7.4 W 13 19 7 10 1016.8 1016.1 0.0
21/09:30am 23.7 22.1 12.7 50 6.4 WSW 13 20 7 11 1016.8 1016.1 0.0
21/09:00am 22.5 21.6 13.6 57 5.2 W 11 17 6 9 1017.0 1016.3 0.0
21/08:30am 21.1 20.0 13.0 60 4.7 W 11 13 6 7 1016.9 1016.2 0.0
21/08:00am 19.9 19.0 12.7 63 4.1 WNW 9 11 5 6 1016.8 1016.1 0.0
21/07:30am 18.1 17.0 12.1 68 3.4 WNW 9 13 5 7 1016.3 1015.6 0.0
21/07:00am 16.5 15.9 11.6 73 2.7 W 6 9 3 5 1015.8 1015.1 0.0
21/06:30am 16.1 15.4 11.3 73 2.6 NNE 6 9 3 5 1015.6 1014.9 0.0
21/06:00am 18.7 16.2 12.2 66 3.7 W 17 24 9 13 1015.3 1014.6 0.0
21/05:30am 19.2 16.3 12.2 64 3.9 W 19 26 10 14 1014.8 1014.1 0.0
21/05:00am 19.7 15.8 12.2 62 4.2 W 24 30 13 16 1014.5 1013.8 0.0
21/04:30am 19.4 15.9 12.2 63 4.1 W 22 28 12 15 1014.2 1013.5 0.0
21/04:00am 19.2 16.2 12.0 63 4.0 WNW 19 24 10 13 1014.3 1013.6 0.0
21/03:30am 19.4 16.1 11.7 61 4.3 WNW 20 30 11 16 1014.2 1013.5 0.0
21/03:00am 20.4 16.1 12.1 59 4.7 W 26 35 14 19 1014.3 1013.6 0.0
21/02:30am 20.2 15.9 12.2 60 4.5 W 26 33 14 18 1014.4 1013.7 0.0
21/02:00am 20.2 16.2 11.9 59 4.7 W 24 32 13 17 1014.7 1014.0 0.0
21/01:30am 20.3 16.3 11.8 58 4.8 WNW 24 33 13 18 1014.7 1014.0 0.0
21/01:00am 20.2 16.0 11.1 56 5.1 WNW 24 28 13 15 1014.8 1014.1 0.0
21/12:30am 20.4 15.8 9.6 50 5.8 WNW 24 30 13 16 1015.0 1014.3 0.0
21/12:00am 20.5 16.3 9.7 50 5.9 WNW 22 28 12 15 1014.9 1014.2 0.0
 
Date/Time
WST
Temp
°C
App
Temp
°C
Dew
Point
°C
Rel
Hum
%
Delta-T
°C
Wind Press
QNH
hPa
Press
MSL
hPa
Rain since
9am
mm
Dir  Spd
km/h
Gust
km/h
Spd
kts
Gust
kts
20/11:30pm 20.5 16.8 10.0 51 5.7 WNW 20 26 11 14 1015.0 1014.3 0.0

Other Formats:

Comma delimited format used in spreadsheet applications
http://www.bom.gov.au/fwo/IDW60801/IDW60801.94319.axf

JavaScript Object Notation format (JSON) in row-major order
http://www.bom.gov.au/fwo/IDW60801/IDW60801.94319.json